sensor_id;sensor_type;location;lat;lon;timestamp;pressure;altitude;pressure_sealevel;temperature;humidity
12949;BME280;6539;49.476;8.484;2023-04-21T00:00:06;100225.09;;;11.14;71.64
12949;BME280;6539;49.476;8.484;2023-04-21T00:02:34;100223.88;;;11.15;71.58
12949;BME280;6539;49.476;8.484;2023-04-21T00:05:08;100214.91;;;11.15;71.37
12949;BME280;6539;49.476;8.484;2023-04-21T00:07:36;100225.09;;;11.14;71.67
12949;BME280;6539;49.476;8.484;2023-04-21T00:10:11;100216.06;;;11.14;71.66
12949;BME280;6539;49.476;8.484;2023-04-21T00:12:37;100218.09;;;11.10;71.79
12949;BME280;6539;49.476;8.484;2023-04-21T00:15:04;100219.69;;;11.07;71.63
12949;BME280;6539;49.476;8.484;2023-04-21T00:17:32;100217.31;;;11.09;71.55
12949;BME280;6539;49.476;8.484;2023-04-21T00:20:00;100222.06;;;11.05;72.01
12949;BME280;6539;49.476;8.484;2023-04-21T00:22:31;100221.28;;;11.05;72.23
12949;BME280;6539;49.476;8.484;2023-04-21T00:24:59;100214.97;;;11.08;71.87
12949;BME280;6539;49.476;8.484;2023-04-21T00:27:25;100215.38;;;11.06;71.93
12949;BME280;6539;49.476;8.484;2023-04-21T00:29:51;100212.63;;;11.06;71.77
12949;BME280;6539;49.476;8.484;2023-04-21T00:32:21;100213.53;;;11.00;71.78
12949;BME280;6539;49.476;8.484;2023-04-21T00:34:52;100206.91;;;10.94;72.29
12949;BME280;6539;49.476;8.484;2023-04-21T00:37:20;100209.34;;;10.88;72.02
12949;BME280;6539;49.476;8.484;2023-04-21T00:39:46;100209.34;;;10.88;72.07
12949;BME280;6539;49.476;8.484;2023-04-21T00:42:15;100208.50;;;10.91;72.08
12949;BME280;6539;49.476;8.484;2023-04-21T00:44:41;100212.03;;;10.92;72.05
12949;BME280;6539;49.476;8.484;2023-04-21T00:47:07;100206.91;;;10.94;72.05
12949;BME280;6539;49.476;8.484;2023-04-21T00:49:33;100204.28;;;10.87;72.12
12949;BME280;6539;49.476;8.484;2023-04-21T00:52:00;100207.88;;;10.80;72.53
12949;BME280;6539;49.476;8.484;2023-04-21T00:54:30;100203.56;;;10.79;72.21
12949;BME280;6539;49.476;8.484;2023-04-21T00:56:57;100208.28;;;10.79;72.87
12949;BME280;6539;49.476;8.484;2023-04-21T00:59:23;100198.50;;;10.78;72.71
12949;BME280;6539;49.476;8.484;2023-04-21T01:01:53;100196.19;;;10.72;72.62
12949;BME280;6539;49.476;8.484;2023-04-21T01:04:24;100193.31;;;10.83;72.60
12949;BME280;6539;49.476;8.484;2023-04-21T01:06:55;100196.91;;;10.80;72.71
12949;BME280;6539;49.476;8.484;2023-04-21T01:09:23;100197.63;;;10.84;72.40
12949;BME280;6539;49.476;8.484;2023-04-21T01:12:19;100194.47;;;10.86;72.30
12949;BME280;6539;49.476;8.484;2023-04-21T01:14:45;100193.75;;;10.82;72.54
12949;BME280;6539;49.476;8.484;2023-04-21T01:17:11;100185.56;;;10.78;72.64
12949;BME280;6539;49.476;8.484;2023-04-21T01:19:44;100187.22;;;10.68;72.61
12949;BME280;6539;49.476;8.484;2023-04-21T01:22:13;100197.91;;;10.63;72.91
12949;BME280;6539;49.476;8.484;2023-04-21T01:24:42;100203.00;;;10.61;72.79
12949;BME280;6539;49.476;8.484;2023-04-21T01:27:18;100205.38;;;10.59;73.35
12949;BME280;6539;49.476;8.484;2023-04-21T01:29:51;100192.94;;;10.51;73.46
12949;BME280;6539;49.476;8.484;2023-04-21T01:32:23;100199.16;;;10.55;73.45
12949;BME280;6539;49.476;8.484;2023-04-21T01:34:52;100196.47;;;10.51;73.40
12949;BME280;6539;49.476;8.484;2023-04-21T01:37:23;100185.84;;;10.53;74.05
12949;BME280;6539;49.476;8.484;2023-04-21T01:39:57;100189.31;;;10.57;73.34
12949;BME280;6539;49.476;8.484;2023-04-21T01:42:28;100185.03;;;10.56;73.66
12949;BME280;6539;49.476;8.484;2023-04-21T01:44:58;100180.34;;;10.53;73.56
12949;BME280;6539;49.476;8.484;2023-04-21T01:47:24;100184.69;;;10.51;73.72
12949;BME280;6539;49.476;8.484;2023-04-21T01:49:51;100184.38;;;10.45;73.60
12949;BME280;6539;49.476;8.484;2023-04-21T01:52:20;100190.63;;;10.46;73.87
12949;BME280;6539;49.476;8.484;2023-04-21T01:54:48;100186.66;;;10.50;73.54
12949;BME280;6539;49.476;8.484;2023-04-21T01:57:17;100194.88;;;10.50;73.58
12949;BME280;6539;49.476;8.484;2023-04-21T01:59:43;100193.78;;;10.44;74.09
12949;BME280;6539;49.476;8.484;2023-04-21T02:02:11;100196.16;;;10.42;74.21
12949;BME280;6539;49.476;8.484;2023-04-21T02:04:39;100190.72;;;10.39;74.14
12949;BME280;6539;49.476;8.484;2023-04-21T02:07:05;100197.38;;;10.41;74.05
12949;BME280;6539;49.476;8.484;2023-04-21T02:09:31;100190.75;;;10.35;74.22
12949;BME280;6539;49.476;8.484;2023-04-21T02:11:57;100195.50;;;10.31;74.98
12949;BME280;6539;49.476;8.484;2023-04-21T02:14:24;100191.53;;;10.36;74.52
12949;BME280;6539;49.476;8.484;2023-04-21T02:16:52;100200.53;;;10.36;74.22
12949;BME280;6539;49.476;8.484;2023-04-21T02:19:20;100202.50;;;10.36;73.74
12949;BME280;6539;49.476;8.484;2023-04-21T02:21:46;100200.59;;;10.29;74.27
12949;BME280;6539;49.476;8.484;2023-04-21T02:24:14;100204.94;;;10.27;74.37
12949;BME280;6539;49.476;8.484;2023-04-21T02:26:42;100197.88;;;10.29;74.35
12949;BME280;6539;49.476;8.484;2023-04-21T02:29:13;100201.81;;;10.28;74.27
12949;BME280;6539;49.476;8.484;2023-04-21T02:31:41;100200.97;;;10.31;74.47
12949;BME280;6539;49.476;8.484;2023-04-21T02:34:07;100203.34;;;10.33;74.18
12949;BME280;6539;49.476;8.484;2023-04-21T02:36:32;100201.41;;;10.30;74.18
12949;BME280;6539;49.476;8.484;2023-04-21T02:38:58;100214.31;;;10.29;74.27
12949;BME280;6539;49.476;8.484;2023-04-21T02:41:24;100205.00;;;10.23;73.95
12949;BME280;6539;49.476;8.484;2023-04-21T02:43:50;100208.53;;;10.20;74.06
12949;BME280;6539;49.476;8.484;2023-04-21T02:46:16;100210.16;;;10.18;74.10
12949;BME280;6539;49.476;8.484;2023-04-21T02:48:44;100212.13;;;10.14;74.33
12949;BME280;6539;49.476;8.484;2023-04-21T02:51:13;100212.13;;;10.14;75.02
12949;BME280;6539;49.476;8.484;2023-04-21T02:53:40;100216.09;;;10.09;74.49
12949;BME280;6539;49.476;8.484;2023-04-21T02:56:09;100216.84;;;10.13;74.62
12949;BME280;6539;49.476;8.484;2023-04-21T02:58:38;100210.53;;;10.16;74.26
12949;BME280;6539;49.476;8.484;2023-04-21T03:01:06;100217.63;;;10.10;73.98
12949;BME280;6539;49.476;8.484;2023-04-21T03:03:32;100210.97;;;10.08;74.30
12949;BME280;6539;49.476;8.484;2023-04-21T03:06:04;100203.97;;;10.07;73.87
12949;BME280;6539;49.476;8.484;2023-04-21T03:08:33;100211.03;;;10.04;74.05
12949;BME280;6539;49.476;8.484;2023-04-21T03:10:59;100208.31;;;10.01;74.15
12949;BME280;6539;49.476;8.484;2023-04-21T03:13:25;100200.84;;;10.01;74.19
12949;BME280;6539;49.476;8.484;2023-04-21T03:15:51;100204.81;;;10.00;74.34
12949;BME280;6539;49.476;8.484;2023-04-21T03:18:19;100203.59;;;10.01;74.61
12949;BME280;6539;49.476;8.484;2023-04-21T03:20:44;100201.22;;;10.07;74.08
12949;BME280;6539;49.476;8.484;2023-04-21T03:23:10;100203.91;;;10.14;74.11
12949;BME280;6539;49.476;8.484;2023-04-21T03:25:37;100208.63;;;10.13;73.77
12949;BME280;6539;49.476;8.484;2023-04-21T03:28:04;100212.53;;;10.12;73.24
12949;BME280;6539;49.476;8.484;2023-04-21T03:30:30;100206.31;;;10.05;73.04
12949;BME280;6539;49.476;8.484;2023-04-21T03:32:55;100194.56;;;10.04;73.19
12949;BME280;6539;49.476;8.484;2023-04-21T03:35:21;100188.72;;;9.98;72.84
12949;BME280;6539;49.476;8.484;2023-04-21T03:37:47;100196.63;;;9.93;72.77
12949;BME280;6539;49.476;8.484;2023-04-21T03:40:15;100205.66;;;9.90;72.67
12949;BME280;6539;49.476;8.484;2023-04-21T03:42:43;100192.81;;;9.80;73.22
12949;BME280;6539;49.476;8.484;2023-04-21T03:45:11;100201.47;;;9.75;73.58
12949;BME280;6539;49.476;8.484;2023-04-21T03:47:39;100190.88;;;9.77;73.93
12949;BME280;6539;49.476;8.484;2023-04-21T03:50:06;100195.19;;;9.78;73.69
12949;BME280;6539;49.476;8.484;2023-04-21T03:52:32;100186.66;;;9.69;73.44
12949;BME280;6539;49.476;8.484;2023-04-21T03:54:58;100192.19;;;9.62;74.18
12949;BME280;6539;49.476;8.484;2023-04-21T03:57:26;100193.78;;;9.59;74.46
12949;BME280;6539;49.476;8.484;2023-04-21T03:59:54;100193.00;;;9.59;74.44
12949;BME280;6539;49.476;8.484;2023-04-21T04:02:24;100193.84;;;9.52;74.80
12949;BME280;6539;49.476;8.484;2023-04-21T04:04:54;100208.31;;;9.49;75.22
12949;BME280;6539;49.476;8.484;2023-04-21T04:07:20;100193.09;;;9.45;75.33
12949;BME280;6539;49.476;8.484;2023-04-21T04:09:46;100197.06;;;9.37;76.35
12949;BME280;6539;49.476;8.484;2023-04-21T04:12:14;100199.84;;;9.33;76.46
12949;BME280;6539;49.476;8.484;2023-04-21T04:14:42;100204.56;;;9.29;77.14
12949;BME280;6539;49.476;8.484;2023-04-21T04:17:12;100206.91;;;9.31;77.26
12949;BME280;6539;49.476;8.484;2023-04-21T04:19:40;100201.75;;;9.36;77.23
12949;BME280;6539;49.476;8.484;2023-04-21T04:22:06;100195.53;;;9.36;77.20
12949;BME280;6539;49.476;8.484;2023-04-21T04:24:34;100196.72;;;9.31;77.91
12949;BME280;6539;49.476;8.484;2023-04-21T04:27:03;100188.09;;;9.33;77.64
12949;BME280;6539;49.476;8.484;2023-04-21T04:29:31;100194.75;;;9.35;77.51
12949;BME280;6539;49.476;8.484;2023-04-21T04:31:56;100203.38;;;9.34;77.55
12949;BME280;6539;49.476;8.484;2023-04-21T04:34:27;100201.78;;;9.33;77.64
12949;BME280;6539;49.476;8.484;2023-04-21T04:36:53;100206.09;;;9.34;77.70
12949;BME280;6539;49.476;8.484;2023-04-21T04:39:18;100210.81;;;9.33;77.51
12949;BME280;6539;49.476;8.484;2023-04-21T04:41:47;100195.94;;;9.31;77.21
12949;BME280;6539;49.476;8.484;2023-04-21T04:44:14;100195.19;;;9.23;77.73
12949;BME280;6539;49.476;8.484;2023-04-21T04:46:42;100197.94;;;9.27;77.63
12949;BME280;6539;49.476;8.484;2023-04-21T04:49:08;100197.16;;;9.26;77.41
12949;BME280;6539;49.476;8.484;2023-04-21T04:51:36;100197.56;;;9.25;77.08
12949;BME280;6539;49.476;8.484;2023-04-21T04:54:04;100185.47;;;9.18;77.05
12949;BME280;6539;49.476;8.484;2023-04-21T04:56:30;100194.84;;;9.17;76.71
12949;BME280;6539;49.476;8.484;2023-04-21T04:58:56;100200.69;;;9.19;77.09
12949;BME280;6539;49.476;8.484;2023-04-21T05:01:22;100218.31;;;9.18;76.81
12949;BME280;6539;49.476;8.484;2023-04-21T05:03:54;100212.84;;;9.18;76.67
12949;BME280;6539;49.476;8.484;2023-04-21T05:06:20;100214.44;;;9.16;76.74
12949;BME280;6539;49.476;8.484;2023-04-21T05:08:46;100224.25;;;9.10;76.91
12949;BME280;6539;49.476;8.484;2023-04-21T05:11:12;100216.78;;;9.10;77.19
12949;BME280;6539;49.476;8.484;2023-04-21T05:13:40;100222.25;;;9.10;77.01
12949;BME280;6539;49.476;8.484;2023-04-21T05:16:06;100211.38;;;9.03;77.06
12949;BME280;6539;49.476;8.484;2023-04-21T05:18:34;100208.63;;;9.03;77.27
12949;BME280;6539;49.476;8.484;2023-04-21T05:21:02;100215.28;;;9.02;77.43
12949;BME280;6539;49.476;8.484;2023-04-21T05:23:30;100223.88;;;9.04;77.66
12949;BME280;6539;49.476;8.484;2023-04-21T05:25:56;100226.19;;;9.09;77.38
12949;BME280;6539;49.476;8.484;2023-04-21T05:28:21;100218.34;;;9.15;77.20
12949;BME280;6539;49.476;8.484;2023-04-21T05:30:50;100224.94;;;9.21;77.05
12949;BME280;6539;49.476;8.484;2023-04-21T05:33:18;100226.09;;;9.23;76.37
12949;BME280;6539;49.476;8.484;2023-04-21T05:35:44;100220.25;;;9.25;76.77
12949;BME280;6539;49.476;8.484;2023-04-21T05:38:09;100222.97;;;9.29;77.10
12949;BME280;6539;49.476;8.484;2023-04-21T05:40:35;100226.06;;;9.31;76.59
12949;BME280;6539;49.476;8.484;2023-04-21T05:43:01;100223.69;;;9.40;76.56
12949;BME280;6539;49.476;8.484;2023-04-21T05:45:27;100224.38;;;9.51;75.61
12949;BME280;6539;49.476;8.484;2023-04-21T05:47:52;100232.22;;;9.49;75.55
12949;BME280;6539;49.476;8.484;2023-04-21T05:50:18;100226.31;;;9.54;75.13
12949;BME280;6539;49.476;8.484;2023-04-21T05:52:46;100234.13;;;9.59;74.89
12949;BME280;6539;49.476;8.484;2023-04-21T05:55:12;100232.91;;;9.60;74.94
12949;BME280;6539;49.476;8.484;2023-04-21T05:57:38;100233.69;;;9.60;74.68
12949;BME280;6539;49.476;8.484;2023-04-21T06:00:04;100238.78;;;9.62;74.37
12949;BME280;6539;49.476;8.484;2023-04-21T06:02:31;100237.56;;;9.70;74.33
12949;BME280;6539;49.476;8.484;2023-04-21T06:04:59;100246.94;;;9.72;74.03
12949;BME280;6539;49.476;8.484;2023-04-21T06:07:25;100245.38;;;9.71;73.90
12949;BME280;6539;49.476;8.484;2023-04-21T06:09:53;100241.34;;;9.86;74.21
12949;BME280;6539;49.476;8.484;2023-04-21T06:12:22;100239.72;;;9.92;74.38
12949;BME280;6539;49.476;8.484;2023-04-21T06:14:48;100238.09;;;9.98;74.33
12949;BME280;6539;49.476;8.484;2023-04-21T06:17:17;100240.03;;;10.02;74.36
12949;BME280;6539;49.476;8.484;2023-04-21T06:19:43;100242.06;;;9.94;74.44
12949;BME280;6539;49.476;8.484;2023-04-21T06:22:09;100256.94;;;9.93;75.12
12949;BME280;6539;49.476;8.484;2023-04-21T06:24:35;100260.81;;;9.99;75.11
12949;BME280;6539;49.476;8.484;2023-04-21T06:27:00;100258.47;;;9.97;75.10
12949;BME280;6539;49.476;8.484;2023-04-21T06:29:29;100252.56;;;10.03;74.66
12949;BME280;6539;49.476;8.484;2023-04-21T06:31:57;100260.34;;;10.08;74.71
12949;BME280;6539;49.476;8.484;2023-04-21T06:34:23;100268.59;;;10.11;74.74
12949;BME280;6539;49.476;8.484;2023-04-21T06:36:53;100271.00;;;10.02;74.25
12949;BME280;6539;49.476;8.484;2023-04-21T06:39:21;100265.03;;;10.14;74.65
12949;BME280;6539;49.476;8.484;2023-04-21T06:41:49;100256.63;;;10.32;74.26
12949;BME280;6539;49.476;8.484;2023-04-21T06:44:20;100248.72;;;10.78;75.77
12949;BME280;6539;49.476;8.484;2023-04-21T06:46:46;100253.38;;;11.11;74.02
12949;BME280;6539;49.476;8.484;2023-04-21T06:49:14;100257.63;;;11.46;71.74
12949;BME280;6539;49.476;8.484;2023-04-21T06:51:39;100259.47;;;11.83;70.29
12949;BME280;6539;49.476;8.484;2023-04-21T06:54:07;100259.91;;;12.04;71.03
12949;BME280;6539;49.476;8.484;2023-04-21T06:56:33;100268.41;;;12.13;69.29
12949;BME280;6539;49.476;8.484;2023-04-21T06:59:03;100265.22;;;12.15;67.17
12949;BME280;6539;49.476;8.484;2023-04-21T07:01:32;100255.81;;;12.12;69.26
12949;BME280;6539;49.476;8.484;2023-04-21T07:04:02;100255.13;;;12.08;68.84
12949;BME280;6539;49.476;8.484;2023-04-21T07:06:32;100252.78;;;12.07;69.50
12949;BME280;6539;49.476;8.484;2023-04-21T07:08:58;100249.84;;;11.94;68.68
12949;BME280;6539;49.476;8.484;2023-04-21T07:11:24;100248.22;;;11.97;69.28
12949;BME280;6539;49.476;8.484;2023-04-21T07:13:50;100243.22;;;11.92;68.95
12949;BME280;6539;49.476;8.484;2023-04-21T07:16:18;100244.28;;;11.98;70.73
12949;BME280;6539;49.476;8.484;2023-04-21T07:18:47;100239.16;;;12.00;67.34
12949;BME280;6539;49.476;8.484;2023-04-21T07:21:13;100248.34;;;11.90;68.17
12949;BME280;6539;49.476;8.484;2023-04-21T07:23:46;100250.69;;;11.91;68.59
12949;BME280;6539;49.476;8.484;2023-04-21T07:26:11;100256.63;;;11.90;68.98
12949;BME280;6539;49.476;8.484;2023-04-21T07:28:37;100247.03;;;11.98;68.86
12949;BME280;6539;49.476;8.484;2023-04-21T07:31:07;100243.34;;;12.31;70.25
12949;BME280;6539;49.476;8.484;2023-04-21T07:33:38;100233.03;;;12.94;68.74
12949;BME280;6539;49.476;8.484;2023-04-21T07:36:10;100239.00;;;13.48;66.13
12949;BME280;6539;49.476;8.484;2023-04-21T07:38:39;100232.22;;;14.01;63.06
12949;BME280;6539;49.476;8.484;2023-04-21T07:41:12;100232.19;;;14.17;60.54
12949;BME280;6539;49.476;8.484;2023-04-21T07:43:40;100240.66;;;14.42;58.86
12949;BME280;6539;49.476;8.484;2023-04-21T07:46:08;100241.47;;;14.55;58.20
12949;BME280;6539;49.476;8.484;2023-04-21T07:48:34;100244.06;;;15.03;57.41
12949;BME280;6539;49.476;8.484;2023-04-21T07:51:03;100248.38;;;15.71;55.58
12949;BME280;6539;49.476;8.484;2023-04-21T07:53:29;100238.94;;;16.40;53.36
12949;BME280;6539;49.476;8.484;2023-04-21T07:55:55;100238.38;;;17.10;54.19
12949;BME280;6539;49.476;8.484;2023-04-21T07:58:21;100237.16;;;17.64;50.01
12949;BME280;6539;49.476;8.484;2023-04-21T08:00:50;100232.91;;;17.99;48.23
12949;BME280;6539;49.476;8.484;2023-04-21T08:03:16;100221.97;;;17.95;48.74
12949;BME280;6539;49.476;8.484;2023-04-21T08:05:44;100221.06;;;18.16;49.29
12949;BME280;6539;49.476;8.484;2023-04-21T08:08:10;100223.88;;;18.35;48.51
12949;BME280;6539;49.476;8.484;2023-04-21T08:10:36;100222.47;;;18.21;48.29
12949;BME280;6539;49.476;8.484;2023-04-21T08:13:02;100215.88;;;18.46;48.11
12949;BME280;6539;49.476;8.484;2023-04-21T08:15:33;100211.56;;;18.63;47.60
12949;BME280;6539;49.476;8.484;2023-04-21T08:17:59;100215.38;;;18.74;47.28
12949;BME280;6539;49.476;8.484;2023-04-21T08:20:27;100217.25;;;18.68;46.40
12949;BME280;6539;49.476;8.484;2023-04-21T08:22:55;100210.28;;;18.37;47.11
12949;BME280;6539;49.476;8.484;2023-04-21T08:25:21;100218.44;;;18.31;47.11
12949;BME280;6539;49.476;8.484;2023-04-21T08:27:49;100208.00;;;18.53;45.93
12949;BME280;6539;49.476;8.484;2023-04-21T08:30:15;100213.06;;;18.82;46.19
12949;BME280;6539;49.476;8.484;2023-04-21T08:32:44;100209.81;;;18.83;45.00
12949;BME280;6539;49.476;8.484;2023-04-21T08:35:12;100208.91;;;18.68;45.51
12949;BME280;6539;49.476;8.484;2023-04-21T08:37:40;100203.47;;;18.92;44.62
12949;BME280;6539;49.476;8.484;2023-04-21T08:40:10;100191.19;;;19.17;45.61
12949;BME280;6539;49.476;8.484;2023-04-21T08:42:37;100183.50;;;19.53;43.73
12949;BME280;6539;49.476;8.484;2023-04-21T08:45:04;100199.56;;;19.82;43.60
12949;BME280;6539;49.476;8.484;2023-04-21T08:47:34;100192.59;;;20.10;42.88
12949;BME280;6539;49.476;8.484;2023-04-21T08:50:05;100196.16;;;20.11;41.91
12949;BME280;6539;49.476;8.484;2023-04-21T08:52:32;100193.28;;;20.29;40.90
12949;BME280;6539;49.476;8.484;2023-04-21T08:54:59;100198.75;;;20.14;41.07
12949;BME280;6539;49.476;8.484;2023-04-21T08:57:27;100196.25;;;19.93;41.90
12949;BME280;6539;49.476;8.484;2023-04-21T08:59:55;100205.81;;;19.77;41.38
12949;BME280;6539;49.476;8.484;2023-04-21T09:02:21;100192.38;;;19.34;42.08
12949;BME280;6539;49.476;8.484;2023-04-21T09:04:50;100196.97;;;19.04;42.67
12949;BME280;6539;49.476;8.484;2023-04-21T09:07:39;100189.84;;;19.03;42.76
12949;BME280;6539;49.476;8.484;2023-04-21T09:10:06;100184.22;;;19.21;43.17
12949;BME280;6539;49.476;8.484;2023-04-21T09:12:33;100177.06;;;19.38;42.34
12949;BME280;6539;49.476;8.484;2023-04-21T09:15:05;100178.41;;;19.75;41.94
12949;BME280;6539;49.476;8.484;2023-04-21T09:17:31;100168.50;;;19.51;41.71
12949;BME280;6539;49.476;8.484;2023-04-21T09:20:20;100162.66;;;19.96;41.68
12949;BME280;6539;49.476;8.484;2023-04-21T09:22:51;100162.03;;;20.25;40.38
12949;BME280;6539;49.476;8.484;2023-04-21T09:25:21;100164.16;;;20.44;39.93
12949;BME280;6539;49.476;8.484;2023-04-21T09:27:49;100157.06;;;20.73;40.75
12949;BME280;6539;49.476;8.484;2023-04-21T09:30:19;100158.31;;;20.86;39.71
12949;BME280;6539;49.476;8.484;2023-04-21T09:32:45;100159.19;;;21.07;39.95
12949;BME280;6539;49.476;8.484;2023-04-21T09:35:13;100150.53;;;21.05;39.36
12949;BME280;6539;49.476;8.484;2023-04-21T09:37:42;100150.25;;;21.17;38.56
12949;BME280;6539;49.476;8.484;2023-04-21T09:40:16;100152.44;;;21.13;38.75
12949;BME280;6539;49.476;8.484;2023-04-21T09:42:45;100164.31;;;21.08;39.16
12949;BME280;6539;49.476;8.484;2023-04-21T09:45:14;100159.50;;;21.09;39.11
12949;BME280;6539;49.476;8.484;2023-04-21T09:47:41;100169.69;;;20.97;39.41
12949;BME280;6539;49.476;8.484;2023-04-21T09:50:11;100162.75;;;20.93;39.59
12949;BME280;6539;49.476;8.484;2023-04-21T09:52:38;100157.94;;;20.93;39.59
12949;BME280;6539;49.476;8.484;2023-04-21T09:55:11;100152.88;;;21.06;39.48
12949;BME280;6539;49.476;8.484;2023-04-21T09:57:46;100147.06;;;20.95;39.53
12949;BME280;6539;49.476;8.484;2023-04-21T10:00:17;100147.84;;;21.10;39.10
12949;BME280;6539;49.476;8.484;2023-04-21T10:02:53;100142.06;;;21.14;39.13
12949;BME280;6539;49.476;8.484;2023-04-21T10:05:22;100141.59;;;21.15;39.23
12949;BME280;6539;49.476;8.484;2023-04-21T10:07:52;100131.28;;;21.21;39.13
12949;BME280;6539;49.476;8.484;2023-04-21T10:10:24;100125.97;;;21.23;38.91
12949;BME280;6539;49.476;8.484;2023-04-21T10:12:53;100129.34;;;21.27;38.43
12949;BME280;6539;49.476;8.484;2023-04-21T10:15:34;100127.50;;;21.24;38.31
12949;BME280;6539;49.476;8.484;2023-04-21T10:23:36;100123.09;;;21.18;38.54
12949;BME280;6539;49.476;8.484;2023-04-21T10:26:16;100120.00;;;21.31;38.75
12949;BME280;6539;49.476;8.484;2023-04-21T10:28:55;100128.78;;;21.44;39.31
12949;BME280;6539;49.476;8.484;2023-04-21T10:34:18;100118.94;;;21.28;41.11
12949;BME280;6539;49.476;8.484;2023-04-21T10:39:26;100109.72;;;20.93;40.08
12949;BME280;6539;49.476;8.484;2023-04-21T10:41:57;100111.25;;;20.79;40.77
12949;BME280;6539;49.476;8.484;2023-04-21T10:47:48;100099.47;;;20.55;40.96
12949;BME280;6539;49.476;8.484;2023-04-21T10:53:11;100089.16;;;20.61;42.47
12949;BME280;6539;49.476;8.484;2023-04-21T10:55:38;100079.06;;;20.64;42.57
12949;BME280;6539;49.476;8.484;2023-04-21T10:58:08;100082.88;;;20.66;42.94
12949;BME280;6539;49.476;8.484;2023-04-21T11:00:37;100074.53;;;20.66;42.56
12949;BME280;6539;49.476;8.484;2023-04-21T11:03:07;100074.81;;;20.68;44.36
12949;BME280;6539;49.476;8.484;2023-04-21T11:05:36;100065.69;;;20.53;42.37
12949;BME280;6539;49.476;8.484;2023-04-21T11:08:09;100063.09;;;20.20;42.50
12949;BME280;6539;49.476;8.484;2023-04-21T11:13:10;100053.09;;;20.28;43.87
12949;BME280;6539;49.476;8.484;2023-04-21T11:15:39;100056.53;;;20.38;43.72
12949;BME280;6539;49.476;8.484;2023-04-21T11:18:09;100057.63;;;20.55;43.63
12949;BME280;6539;49.476;8.484;2023-04-21T11:20:39;100058.66;;;20.72;44.12
12949;BME280;6539;49.476;8.484;2023-04-21T11:23:16;100053.22;;;20.83;42.99
12949;BME280;6539;49.476;8.484;2023-04-21T11:25:45;100052.78;;;20.85;42.47
12949;BME280;6539;49.476;8.484;2023-04-21T11:28:22;100044.88;;;20.83;41.11
12949;BME280;6539;49.476;8.484;2023-04-21T11:30:48;100049.03;;;20.73;41.25
12949;BME280;6539;49.476;8.484;2023-04-21T11:33:16;100046.63;;;20.81;42.11
12949;BME280;6539;49.476;8.484;2023-04-21T11:35:42;100036.38;;;20.92;41.88
12949;BME280;6539;49.476;8.484;2023-04-21T11:38:17;100033.38;;;21.10;41.80
12949;BME280;6539;49.476;8.484;2023-04-21T11:40:52;100026.69;;;21.22;41.59
12949;BME280;6539;49.476;8.484;2023-04-21T11:43:20;100022.09;;;21.40;41.26
12949;BME280;6539;49.476;8.484;2023-04-21T11:45:51;100017.16;;;21.49;40.55
12949;BME280;6539;49.476;8.484;2023-04-21T11:48:18;100017.75;;;21.59;41.01
12949;BME280;6539;49.476;8.484;2023-04-21T11:50:48;100007.66;;;21.41;40.23
12949;BME280;6539;49.476;8.484;2023-04-21T11:53:21;100011.91;;;21.37;40.79
12949;BME280;6539;49.476;8.484;2023-04-21T11:55:47;100016.16;;;21.32;41.61
12949;BME280;6539;49.476;8.484;2023-04-21T11:58:15;100015.81;;;21.45;41.32
12949;BME280;6539;49.476;8.484;2023-04-21T12:00:49;100012.16;;;21.59;40.62
12949;BME280;6539;49.476;8.484;2023-04-21T12:03:18;100006.16;;;21.66;40.15
12949;BME280;6539;49.476;8.484;2023-04-21T12:05:46;100008.19;;;21.65;40.53
12949;BME280;6539;49.476;8.484;2023-04-21T12:08:16;100012.31;;;21.70;40.66
12949;BME280;6539;49.476;8.484;2023-04-21T12:10:45;100006.78;;;21.75;40.84
12949;BME280;6539;49.476;8.484;2023-04-21T12:13:24;100004.97;;;21.72;40.74
12949;BME280;6539;49.476;8.484;2023-04-21T12:15:51;100010.13;;;21.79;40.60
12949;BME280;6539;49.476;8.484;2023-04-21T12:18:20;100017.56;;;21.82;39.41
12949;BME280;6539;49.476;8.484;2023-04-21T12:20:50;100006.03;;;21.75;40.36
12949;BME280;6539;49.476;8.484;2023-04-21T12:23:23;100013.84;;;21.71;40.01
12949;BME280;6539;49.476;8.484;2023-04-21T12:25:49;100012.84;;;21.74;40.77
12949;BME280;6539;49.476;8.484;2023-04-21T12:28:18;100007.63;;;21.81;40.69
12949;BME280;6539;49.476;8.484;2023-04-21T12:30:46;100007.84;;;21.78;40.91
12949;BME280;6539;49.476;8.484;2023-04-21T12:33:14;100001.56;;;21.63;40.27
12949;BME280;6539;49.476;8.484;2023-04-21T12:35:45;99997.50;;;21.64;40.34
12949;BME280;6539;49.476;8.484;2023-04-21T12:38:10;99994.44;;;21.62;41.02
12949;BME280;6539;49.476;8.484;2023-04-21T12:40:36;99999.97;;;21.56;40.31
12949;BME280;6539;49.476;8.484;2023-04-21T12:43:02;99994.38;;;21.56;40.51
12949;BME280;6539;49.476;8.484;2023-04-21T12:45:28;99987.75;;;21.54;40.82
12949;BME280;6539;49.476;8.484;2023-04-21T12:47:58;99986.75;;;21.57;41.17
12949;BME280;6539;49.476;8.484;2023-04-21T12:50:24;99972.09;;;21.62;41.39
12949;BME280;6539;49.476;8.484;2023-04-21T12:52:49;99967.81;;;21.66;40.67
12949;BME280;6539;49.476;8.484;2023-04-21T12:55:21;99976.91;;;21.61;41.27
12949;BME280;6539;49.476;8.484;2023-04-21T12:57:46;99974.94;;;21.67;40.91
12949;BME280;6539;49.476;8.484;2023-04-21T13:00:20;99969.56;;;21.64;41.02
12949;BME280;6539;49.476;8.484;2023-04-21T13:02:46;99973.00;;;21.73;40.80
12949;BME280;6539;49.476;8.484;2023-04-21T13:05:12;99969.91;;;21.71;40.77
12949;BME280;6539;49.476;8.484;2023-04-21T13:07:39;99965.66;;;21.76;40.87
12949;BME280;6539;49.476;8.484;2023-04-21T13:10:06;99959.34;;;21.81;40.40
12949;BME280;6539;49.476;8.484;2023-04-21T13:12:35;99966.19;;;21.80;40.41
12949;BME280;6539;49.476;8.484;2023-04-21T13:15:01;99962.50;;;21.68;40.71
12949;BME280;6539;49.476;8.484;2023-04-21T13:17:29;99961.41;;;21.60;40.44
12949;BME280;6539;49.476;8.484;2023-04-21T13:19:55;99956.47;;;21.50;40.41
12949;BME280;6539;49.476;8.484;2023-04-21T13:22:23;99953.31;;;21.42;41.24
12949;BME280;6539;49.476;8.484;2023-04-21T13:24:51;99947.72;;;21.42;40.75
12949;BME280;6539;49.476;8.484;2023-04-21T13:27:16;99952.84;;;21.23;41.35